Time;durP1;ratioP1;P1;durP2;ratioP2;P2;SDS_P1;SDS_P2;PMS_P1;PMS_P2;Temp;Humidity;BMP_temperature;BMP_pressure;BME280_temperature;BME280_humidity;BME280_pressure;Samples;Min_cycle;Max_cycle;Signal;HPM_P1;HPM_P2
2022/05/19 00:01:49;;;;;;;;;;;13.70;99.90;;;;;;5052668;28;19955;-79
2022/05/19 00:04:15;;;;;;;;;;;;;;;;;;5051589;28;19909;-78
2022/05/19 00:06:41;;;;;;;;;;;13.70;99.90;;;;;;5055981;28;19892;-79
2022/05/19 00:09:07;;;;;;;;;;;13.80;99.90;;;;;;5054149;28;20015;-80
2022/05/19 00:11:33;;;;;;;;;;;13.70;99.90;;;;;;5059381;28;19947;-79
2022/05/19 00:13:59;;;;;;;;;;;;;;;;;;5058274;28;20515;-78
2022/05/19 00:16:24;;;;;;;;;;;;;;;;;;5060499;28;19908;-78
2022/05/19 00:18:50;;;;;;;;;;;;;;;;;;5059564;28;19917;-78
2022/05/19 00:21:16;;;;;;;;;;;;;;;;;;5059023;28;19927;-79
2022/05/19 00:23:42;;;;;;;;;;;;;;;;;;5058953;28;19904;-78
2022/05/19 00:26:08;;;;;;;;;;;;;;;;;;5057031;28;19940;-78
2022/05/19 00:28:34;;;;;;;;;;;;;;;;;;5058429;28;19920;-78
2022/05/19 00:31:00;;;;;;;;;;;;;;;;;;5051948;28;19912;-78
2022/05/19 00:33:25;;;;;;;;;;;;;;;;;;5066543;28;19923;-78
2022/05/19 00:35:51;;;;;;;;;;;;;;;;;;5063867;28;19916;-79
2022/05/19 00:38:17;;;;;;;;;;;13.60;99.90;;;;;;5061197;28;19904;-78
2022/05/19 00:40:51;;;;;;;;;;;13.50;99.90;;;;;;5063660;28;19915;-78
2022/05/19 00:43:17;;;;;;;;;;;;;;;;;;5065437;28;19909;-79
2022/05/19 00:45:43;;;;;;;;;;;;;;;;;;5058352;28;20009;-78
2022/05/19 00:48:09;;;;;;;;;;;;;;;;;;5062998;28;19909;-78
2022/05/19 00:50:35;;;;;;;;;;;;;;;;;;5068174;28;19912;-79
2022/05/19 00:53:00;;;;;;;;;;;;;;;;;;5048961;28;19915;-78
2022/05/19 00:55:26;;;;;;;;;;;;;;;;;;5054827;28;20284;-78
2022/05/19 00:57:52;;;;;;;;;;;;;;;;;;5057280;28;19909;-78
2022/05/19 01:00:18;;;;;;;;;;;;;;;;;;5061422;28;19916;-79
2022/05/19 01:02:44;;;;;;;;;;;;;;;;;;5059562;28;20348;-78
2022/05/19 01:05:10;;;;;;;;;;;;;;;;;;5062613;28;20373;-78
2022/05/19 01:07:41;;;;;;;;;;;12.20;99.90;;;;;;5067742;28;19973;-79
2022/05/19 01:10:06;;;;;;;;;;;;;;;;;;5062438;28;20131;-77
2022/05/19 01:12:32;;;;;;;;;;;;;;;;;;5065317;28;19909;-79
2022/05/19 01:14:58;;;;;;;;;;;;;;;;;;5069570;28;19995;-79
2022/05/19 01:17:24;;;;;;;;;;;;;;;;;;5057840;28;19951;-77
2022/05/19 01:19:50;;;;;;;;;;;;;;;;;;5069799;28;19916;-79
2022/05/19 01:22:16;;;;;;;;;;;;;;;;;;5066811;28;19905;-79
2022/05/19 01:24:42;;;;;;;;;;;;;;;;;;5067262;28;19913;-79
2022/05/19 01:27:08;;;;;;;;;;;;;;;;;;5061886;28;19913;-79
2022/05/19 01:29:34;;;;;;;;;;;;;;;;;;5058369;28;19939;-79
2022/05/19 01:32:00;;;;;;;;;;;;;;;;;;5058147;28;19975;-79
2022/05/19 01:34:27;;;;;;;;;;;13.00;99.90;;;;;;5060473;28;19944;-78
2022/05/19 01:36:53;;;;;;;;;;;;;;;;;;5055503;28;19908;-80
2022/05/19 01:39:19;;;;;;;;;;;;;;;;;;5058222;28;19912;-79
2022/05/19 01:41:46;;;;;;;;;;;;;;;;;;5056382;28;19917;-78
2022/05/19 01:44:12;;;;;;;;;;;;;;;;;;5067409;28;21988;-79
2022/05/19 01:46:37;;;;;;;;;;;;;;;;;;5056679;28;19963;-78
2022/05/19 01:49:03;;;;;;;;;;;;;;;;;;5062351;28;19990;-79
2022/05/19 01:51:35;;;;;;;;;;;11.80;99.90;;;;;;5065349;28;19909;-79
2022/05/19 01:54:01;;;;;;;;;;;;;;;;;;5059912;28;19912;-78
2022/05/19 01:56:30;;;;;;;;;;;11.80;99.90;;;;;;5061338;28;19912;-78
2022/05/19 01:58:56;;;;;;;;;;;;;;;;;;5051467;28;19916;-79
2022/05/19 02:01:23;;;;;;;;;;;12.60;99.90;;;;;;5051145;28;19947;-78
2022/05/19 02:03:49;;;;;;;;;;;;;;;;;;5061674;28;19995;-78
2022/05/19 02:06:15;;;;;;;;;;;;;;;;;;5066258;28;19919;-78
2022/05/19 02:08:44;;;;;;;;;;;;;;;;;;5058331;28;19917;-78
2022/05/19 02:11:12;;;;;;;;;;;11.70;99.90;;;;;;5060361;28;19919;-77
2022/05/19 02:13:38;;;;;;;;;;;;;;;;;;5047705;28;19920;-78
2022/05/19 02:16:03;;;;;;;;;;;;;;;;;;5057390;28;19999;-78
2022/05/19 02:18:29;;;;;;;;;;;;;;;;;;5054828;28;19908;-78
2022/05/19 02:20:57;;;;;;;;;;;12.70;99.90;;;;;;5057526;28;19932;-79
2022/05/19 02:23:23;;;;;;;;;;;;;;;;;;5057398;28;19913;-77
2022/05/19 02:25:48;;;;;;;;;;;;;;;;;;5056043;28;19999;-78
2022/05/19 02:28:14;;;;;;;;;;;;;;;;;;5060581;28;20360;-78
2022/05/19 02:30:40;;;;;;;;;;;;;;;;;;5054761;28;19944;-78
2022/05/19 02:33:06;;;;;;;;;;;12.70;99.90;;;;;;5055720;28;19922;-78
2022/05/19 02:35:32;;;;;;;;;;;;;;;;;;5057416;28;19908;-78
2022/05/19 02:37:58;;;;;;;;;;;;;;;;;;5056413;28;19936;-78
2022/05/19 02:40:25;;;;;;;;;;;11.70;99.90;;;;;;5054216;28;19912;-78
2022/05/19 02:42:51;;;;;;;;;;;;;;;;;;5060676;28;20396;-78
2022/05/19 02:45:16;;;;;;;;;;;;;;;;;;5057147;28;19935;-78
2022/05/19 02:47:43;;;;;;;;;;;;;;;;;;5058383;28;19948;-78
2022/05/19 02:50:09;;;;;;;;;;;12.30;99.90;;;;;;5060759;28;20276;-78
2022/05/19 02:52:35;;;;;;;;;;;;;;;;;;5062444;28;19923;-78
2022/05/19 02:55:01;;;;;;;;;;;;;;;;;;5040649;28;19916;-77
2022/05/19 02:57:27;;;;;;;;;;;11.50;99.90;;;;;;5064787;28;19928;-78
2022/05/19 02:59:52;;;;;;;;;;;;;;;;;;5056150;28;19913;-78
2022/05/19 03:02:18;;;;;;;;;;;;;;;;;;5051403;28;19913;-78
2022/05/19 03:04:44;;;;;;;;;;;;;;;;;;5057991;28;19905;-78
2022/05/19 03:07:10;;;;;;;;;;;12.20;99.90;;;;;;5060657;28;19984;-78
2022/05/19 03:09:35;;;;;;;;;;;;;;;;;;5058442;28;19942;-78
2022/05/19 03:12:01;;;;;;;;;;;;;;;;;;5059835;28;19984;-78
2022/05/19 03:14:27;;;;;;;;;;;;;;;;;;5061533;28;19912;-78
2022/05/19 03:16:53;;;;;;;;;;;;;;;;;;5057371;28;19912;-78
2022/05/19 03:19:20;;;;;;;;;;;;;;;;;;5060829;28;19931;-78
2022/05/19 03:21:46;;;;;;;;;;;;;;;;;;5060825;28;20644;-78
2022/05/19 03:24:12;;;;;;;;;;;;;;;;;;5049413;28;19962;-78
2022/05/19 03:26:38;;;;;;;;;;;;;;;;;;5049768;28;19917;-78
2022/05/19 03:29:04;;;;;;;;;;;11.50;99.90;;;;;;5069955;28;19944;-79
2022/05/19 03:31:30;;;;;;;;;;;;;;;;;;5054107;28;19999;-78
2022/05/19 03:33:56;;;;;;;;;;;;;;;;;;5061358;28;19927;-78
2022/05/19 03:36:21;;;;;;;;;;;;;;;;;;5056597;28;19912;-78
2022/05/19 03:38:47;;;;;;;;;;;;;;;;;;5058818;28;19939;-79
2022/05/19 03:41:13;;;;;;;;;;;11.30;99.90;;;;;;5062666;28;19896;-78
2022/05/19 03:43:39;;;;;;;;;;;;;;;;;;5059117;28;19916;-78
2022/05/19 03:46:05;;;;;;;;;;;;;;;;;;5060341;28;20311;-78
2022/05/19 03:48:31;;;;;;;;;;;;;;;;;;5061537;28;19908;-78
2022/05/19 03:50:57;;;;;;;;;;;;;;;;;;5068495;28;20407;-79
2022/05/19 03:53:23;;;;;;;;;;;;;;;;;;5066476;28;19931;-78
2022/05/19 03:55:48;;;;;;;;;;;;;;;;;;5064566;28;19920;-78
2022/05/19 03:58:14;;;;;;;;;;;;;;;;;;5074891;28;19996;-78
2022/05/19 04:00:40;;;;;;;;;;;;;;;;;;5066104;28;19917;-78
2022/05/19 04:03:06;;;;;;;;;;;;;;;;;;5060674;28;19913;-78
2022/05/19 04:05:32;;;;;;;;;;;;;;;;;;5063461;28;19977;-79
2022/05/19 04:07:58;;;;;;;;;;;;;;;;;;5059167;28;19963;-78
2022/05/19 04:10:24;;;;;;;;;;;;;;;;;;5063979;28;20284;-78
2022/05/19 04:12:50;;;;;;;;;;;;;;;;;;5058816;28;19908;-79
2022/05/19 04:15:15;;;;;;;;;;;11.70;99.90;;;;;;5064271;28;20111;-78
2022/05/19 04:17:41;;;;;;;;;;;;;;;;;;5061006;28;19942;-78
2022/05/19 04:20:08;;;;;;;;;;;11.70;99.90;;;;;;5058366;28;19924;-79
2022/05/19 04:22:34;;;;;;;;;;;;;;;;;;5083868;28;19921;-80
2022/05/19 04:25:00;;;;;;;;;;;;;;;;;;5059411;28;19944;-81
2022/05/19 04:27:29;;;;;;;;;;;12.70;99.90;;;;;;5047743;28;19912;-80
2022/05/19 04:29:54;;;;;;;;;;;;;;;;;;5054209;28;19920;-79
2022/05/19 04:32:20;;;;;;;;;;;;;;;;;;5058951;28;20007;-78
2022/05/19 04:34:46;;;;;;;;;;;;;;;;;;5059125;28;19913;-79
2022/05/19 04:37:12;;;;;;;;;;;;;;;;;;5055453;28;20233;-78
2022/05/19 04:39:38;;;;;;;;;;;;;;;;;;5061770;28;19909;-80
2022/05/19 04:42:04;;;;;;;;;;;;;;;;;;5063351;28;19948;-80
2022/05/19 04:44:30;;;;;;;;;;;;;;;;;;5053540;28;19915;-79
2022/05/19 04:46:55;;;;;;;;;;;11.90;99.90;;;;;;5055600;28;19913;-79
2022/05/19 04:49:21;;;;;;;2.20;1.13;;;;;;;;;;5050020;28;19948;-79
2022/05/19 04:51:47;;;;;;;2.35;1.20;;;;;;;;;;5056837;28;20511;-80
2022/05/19 04:54:13;;;;;;;4.43;1.60;;;;;;;;;;5041730;28;20441;-79
2022/05/19 04:56:42;;;;;;;1.25;0.90;;;;;;;;;;5052362;28;20029;-79
2022/05/19 04:59:13;;;;;;;2.67;1.17;;;;;;;;;;5049670;28;20559;-80
2022/05/19 05:01:40;;;;;;;;;;;;;;;;;;5049506;28;20063;-79
2022/05/19 05:04:06;;;;;;;6.78;2.55;;;;;;;;;;5046236;28;19923;-80
2022/05/19 05:06:32;;;;;;;8.98;3.25;;;;;;;;;;5056667;28;20021;-80
2022/05/19 05:08:57;;;;;;;;;;;;;;;;;;5056480;28;20105;-80
2022/05/19 05:11:23;;;;;;;;;;;13.90;99.90;;;;;;5051929;28;21220;-81
2022/05/19 05:13:49;;;;;;;;;;;;;;;;;;5051313;28;19923;-81
2022/05/19 05:16:15;;;;;;;;;;;;;;;;;;5055169;28;19959;-81
2022/05/19 05:18:41;;;;;;;;;;;;;;;;;;5064916;28;19916;-80
2022/05/19 05:21:07;;;;;;;;;;;14.00;99.90;;;;;;5066770;28;19909;-81
2022/05/19 05:23:33;;;;;;;;;;;;;;;;;;5063728;28;20453;-78
2022/05/19 05:25:58;;;;;;;;;;;14.30;99.90;;;;;;5065808;28;19913;-81
2022/05/19 05:28:24;;;;;;;;;;;;;;;;;;5068142;28;20361;-80
2022/05/19 05:30:51;;;;;;;;;;;;;;;;;;5070141;28;19971;-81
2022/05/19 05:33:17;;;;;;;3.03;2.47;;;;;;;;;;5065099;28;19912;-81
2022/05/19 05:35:43;;;;;;;2.28;1.15;;;;;;;;;;5066435;28;20025;-81
2022/05/19 05:38:09;;;;;;;2.45;1.13;;;;;;;;;;5066626;28;20504;-82
2022/05/19 05:40:36;;;;;;;1.65;1.20;;;15.10;99.90;;;;;;5068123;28;20037;-82
2022/05/19 05:43:12;;;;;;;3.67;1.33;;;;;;;;;;5061600;28;20017;-80
2022/05/19 05:45:39;;;;;;;1.60;1.02;;;;;;;;;;5068670;28;20036;-82
2022/05/19 05:48:05;;;;;;;1.38;0.85;;;;;;;;;;5065440;28;20032;-81
2022/05/19 05:50:31;;;;;;;5.70;1.17;;;16.50;99.90;;;;;;5065828;28;20500;-81
2022/05/19 05:52:57;;;;;;;2.13;1.23;;;;;;;;;;5073828;28;20111;-81
2022/05/19 05:55:22;;;;;;;1.58;1.05;;;16.80;99.90;;;;;;5064338;28;20124;-81
2022/05/19 05:57:48;;;;;;;1.52;0.77;;;;;;;;;;5062019;28;20052;-81
2022/05/19 06:00:15;;;;;;;1.42;0.90;;;;;;;;;;5062375;28;20128;-82
2022/05/19 06:02:41;;;;;;;;;;;;;;;;;;5061764;28;20037;-81
2022/05/19 06:05:06;;;;;;;;;;;18.40;99.90;;;;;;5059603;28;19923;-82
2022/05/19 06:07:32;;;;;;;;;;;19.80;99.90;;;;;;5065933;28;19908;-81
2022/05/19 06:09:57;;;;;;;;;;;20.30;99.90;;;;;;5064935;28;19924;-81
2022/05/19 06:12:24;;;;;;;2.17;1.08;;;;;;;;;;5067278;28;19909;-80
2022/05/19 06:14:50;;;;;;;1.77;0.85;;;;;;;;;;5073013;28;20040;-80
2022/05/19 06:17:16;;;;;;;1.10;0.70;;;;;;;;;;5063215;28;20029;-81
2022/05/19 06:19:42;;;;;;;;;;;22.00;99.20;;;;;;5075252;28;20024;-80
2022/05/19 06:22:07;;;;;;;;;;;25.10;92.80;;;;;;5065825;28;19900;-81
2022/05/19 06:24:33;;;;;;;3.78;0.68;;;26.30;91.90;;;;;;5070329;28;19904;-80
2022/05/19 06:26:59;;;;;;;2.60;0.40;;;;;;;;;;5059460;28;20029;-82
2022/05/19 06:29:25;;;;;;;1.05;0.50;;;;;;;;;;5073380;28;20044;-81
2022/05/19 06:31:51;;;;;;;0.82;0.45;;;;;;;;;;5057099;28;20409;-79
2022/05/19 06:34:17;;;;;;;1.17;0.38;;;31.90;55.70;;;;;;5071873;28;20408;-80
2022/05/19 06:36:43;;;;;;;1.00;0.43;;;;;;;;;;5066722;28;20109;-81
2022/05/19 06:39:09;;;;;;;1.88;0.68;;;;;;;;;;5065893;28;20155;-78
2022/05/19 06:44:20;;;;;;;0.88;0.40;;;;;;;;;;5062659;28;20074;-81
2022/05/19 06:46:47;;;;;;;0.73;0.30;;;34.10;43.70;;;;;;5064858;28;20041;-80
2022/05/19 06:49:14;;;;;;;1.60;0.50;;;;;;;;;;5062739;28;20069;-80
2022/05/19 06:51:40;;;;;;;1.05;0.43;;;;;;;;;;5069456;28;20032;-80
2022/05/19 06:54:06;;;;;;;2.45;0.75;;;;;;;;;;5065856;28;20054;-81
2022/05/19 06:56:35;;;;;;;1.50;0.50;;;;;;;;;;5067430;28;20404;-81
2022/05/19 06:59:01;;;;;;;4.00;1.35;;;;;;;;;;5063794;28;20029;-80
2022/05/19 07:01:27;;;;;;;1.73;0.50;;;;;;;;;;5070439;28;20052;-80
2022/05/19 07:03:52;;;;;;;9.40;2.60;;;32.20;55.60;;;;;;5061938;28;20029;-81
2022/05/19 07:06:18;;;;;;;2.00;0.65;;;;;;;;;;5062283;28;20041;-81
2022/05/19 07:08:44;;;;;;;1.05;0.40;;;;;;;;;;5061199;28;20573;-79
2022/05/19 07:11:24;;;;;;;2.40;0.40;;;;;;;;;;5064434;28;20078;-80
2022/05/19 07:13:51;;;;;;;1.67;0.50;;;;;;;;;;5064087;28;20429;-80
2022/05/19 07:16:17;;;;;;;1.20;0.60;;;;;;;;;;5063929;28;20410;-80
2022/05/19 07:18:43;;;;;;;1.40;0.50;;;;;;;;;;5060445;28;20877;-80
2022/05/19 07:21:09;;;;;;;3.20;1.17;;;;;;;;;;5056962;28;20956;-80
2022/05/19 07:23:36;;;;;;;1.58;0.50;;;;;;;;;;5052123;28;20509;-80
2022/05/19 07:26:03;;;;;;;1.95;0.68;;;;;;;;;;5060185;28;20474;-80
2022/05/19 07:28:29;;;;;;;2.67;0.60;;;;;;;;;;5062338;28;20365;-80
2022/05/19 07:30:55;;;;;;;1.35;0.55;;;;;;;;;;5066032;28;20455;-80
2022/05/19 07:33:21;;;;;;;3.70;0.43;;;;;;;;;;5058945;28;20405;-80
2022/05/19 07:35:49;;;;;;;1.00;0.50;;;;;;;;;;5054465;28;20409;-79
2022/05/19 07:38:15;;;;;;;6.03;0.77;;;26.20;74.30;;;;;;5061016;28;20397;-80
2022/05/19 07:40:42;;;;;;;1.60;0.60;;;;;;;;;;5058728;28;20425;-80
2022/05/19 07:45:54;;;;;;;2.10;0.73;;;;;;;;;;5059298;28;20396;-81
2022/05/19 07:48:20;;;;;;;1.20;0.60;;;;;;;;;;5062918;28;20451;-82
2022/05/19 07:50:45;;;;;;;1.05;0.63;;;24.80;75.20;;;;;;5067044;28;20458;-80
2022/05/19 07:53:11;;;;;;;0.70;0.50;;;;;;;;;;5056254;28;20410;-80
2022/05/19 07:55:37;;;;;;;1.50;0.63;;;;;;;;;;5054704;28;20473;-81
2022/05/19 07:58:04;;;;;;;0.82;0.45;;;;;;;;;;5057508;28;20415;-80
2022/05/19 08:00:30;;;;;;;0.90;0.60;;;;;;;;;;5053707;28;20419;-80
2022/05/19 08:02:56;;;;;;;1.90;0.50;;;;;;;;;;5059743;28;20417;-80
2022/05/19 08:05:22;;;;;;;11.18;1.45;;;;;;;;;;5062938;28;21073;-79
2022/05/19 08:07:48;;;;;;;13.55;2.75;;;;;;;;;;5062237;28;20389;-80
2022/05/19 08:10:20;;;;;;;2.85;1.13;;;;;;;;;;5058457;28;20438;-81
2022/05/19 08:15:37;;;;;;;1.85;0.65;;;;;;;;;;5066030;28;20450;-80
2022/05/19 08:18:09;;;;;;;1.90;0.63;;;24.70;78.40;;;;;;5062728;28;20401;-80
2022/05/19 08:20:39;;;;;;;1.42;0.77;;;24.80;78.90;;;;;;5062404;28;20420;-81
2022/05/19 08:23:05;;;;;;;2.00;0.77;;;;;;;;;;5064804;28;21054;-81
2022/05/19 08:25:31;;;;;;;2.17;0.60;;;;;;;;;;5065782;28;20622;-80
2022/05/19 08:27:58;;;;;;;1.87;0.60;;;;;;;;;;5056359;28;20421;-80
2022/05/19 08:30:24;;;;;;;1.80;0.67;;;;;;;;;;5062416;28;20692;-80
2022/05/19 08:32:50;;;;;;;2.50;0.57;;;;;;;;;;5060394;28;20404;-80
2022/05/19 08:35:17;;;;;;;1.15;0.77;;;29.30;66.60;;;;;;5066478;28;20499;-80
2022/05/19 08:37:43;;;;;;;0.90;0.50;;;;;;;;;;5074190;28;20417;-80
2022/05/19 08:40:09;;;;;;;1.13;0.57;;;33.50;58.00;;;;;;5066460;28;20512;-81
2022/05/19 08:42:37;;;;;;;1.73;0.60;;;;;;;;;;5073755;28;20407;-79
2022/05/19 08:45:06;;;;;;;1.15;0.50;;;;;;;;;;5074534;28;20405;-80
2022/05/19 08:47:37;;;;;;;2.07;0.63;;;;;;;;;;5062445;28;20441;-80
2022/05/19 08:50:06;;;;;;;1.38;0.68;;;;;;;;;;5059424;28;20438;-81
2022/05/19 08:52:38;;;;;;;0.60;0.40;;;;;;;;;;5063013;28;20424;-80
2022/05/19 08:55:04;;;;;;;1.10;0.60;;;;;;;;;;5067539;28;20434;-81
2022/05/19 08:57:39;;;;;;;2.70;0.43;;;;;;;;;;5071653;28;20487;-81
2022/05/19 09:00:14;;;;;;;1.35;0.70;;;38.60;35.20;;;;;;5071096;28;20413;-81
2022/05/19 09:02:57;;;;;;;1.42;0.75;;;39.30;33.80;;;;;;5066871;28;20021;-80
2022/05/19 09:05:54;;;;;;;4.88;0.50;;;39.20;44.80;;;;;;5073035;28;20036;-80
2022/05/19 09:08:59;;;;;;;4.43;0.60;;;39.70;34.70;;;;;;5066618;28;20503;-80
2022/05/19 09:11:33;;;;;;;0.98;0.40;;;38.90;36.10;;;;;;5066315;28;20135;-80
2022/05/19 09:14:10;;;;;;;0.80;0.45;;;39.70;34.70;;;;;;5071967;28;20481;-81
2022/05/19 09:16:38;;;;;;;1.10;0.70;;;38.90;34.80;;;;;;5068462;28;20063;-80
2022/05/19 09:19:11;;;;;;;1.05;0.50;;;37.50;37.00;;;;;;5065762;28;20033;-80
2022/05/19 09:21:40;;;;;;;1.23;0.60;;;36.00;46.60;;;;;;5063966;28;20465;-80
2022/05/19 09:24:06;;;;;;;;;;;;;;;;;;5068071;28;20028;-82
2022/05/19 09:26:37;;;;;;;;;;;33.40;43.50;;;;;;5067171;28;20406;-80
2022/05/19 09:29:07;;;;;;;;;;;32.20;46.10;;;;;;5068586;28;19966;-79
2022/05/19 09:31:33;;;;;;;;;;;;;;;;;;5070282;28;20274;-80
2022/05/19 09:33:58;;;;;;;;;;;30.60;50.70;;;;;;5071627;28;19977;-81
2022/05/19 09:36:24;;;;;;;;;;;30.10;51.80;;;;;;5068327;28;19904;-79
2022/05/19 09:38:55;;;;;;;;;;;29.60;56.20;;;;;;5065893;28;19936;-80
2022/05/19 09:41:27;;;;;;;;;;;29.00;55.00;;;;;;5061677;28;19909;-81
2022/05/19 09:43:54;;;;;;;;;;;29.00;54.90;;;;;;5068076;28;19913;-80
2022/05/19 09:46:19;;;;;;;;;;;28.60;53.70;;;;;;5068022;28;19959;-81
2022/05/19 09:49:02;;;;;;;;;;;28.70;54.90;;;;;;5060303;28;20308;-81
2022/05/19 09:51:38;;;;;;;;;;;29.30;57.00;;;;;;5071775;28;20003;-82
2022/05/19 09:54:04;;;;;;;;;;;29.00;56.60;;;;;;5065086;28;19916;-82
2022/05/19 09:56:37;;;;;;;;;;;28.30;54.90;;;;;;5064237;28;19914;-81
2022/05/19 09:59:07;;;;;;;;;;;28.60;52.70;;;;;;5058646;28;20003;-80
2022/05/19 10:01:33;;;;;;;;;;;;;;;;;;5065004;28;19912;-79
2022/05/19 10:04:01;;;;;;;;;;;29.00;56.90;;;;;;5069971;28;19909;-81
2022/05/19 10:06:45;;;;;;;;;;;27.80;57.20;;;;;;5073097;28;20007;-80
2022/05/19 10:09:14;;;;;;;;;;;28.90;56.90;;;;;;5068927;28;19909;-79
2022/05/19 10:11:52;;;;;;;;;;;28.00;56.90;;;;;;5064816;28;19982;-80
2022/05/19 10:14:26;;;;;;;;;;;27.90;55.20;;;;;;5061058;28;20471;-80
2022/05/19 10:17:09;;;;;;;;;;;28.10;53.70;;;;;;5063244;28;20020;-81
2022/05/19 10:19:56;;;;;;;;;;;28.10;53.70;;;;;;5062112;28;19908;-80
2022/05/19 10:22:24;;;;;;;;;;;28.10;54.40;;;;;;5069830;28;19932;-80
2022/05/19 10:25:04;;;;;;;;;;;28.30;52.20;;;;;;5061850;28;19909;-80
2022/05/19 10:33:31;;;;;;;;;;;28.70;53.40;;;;;;5061302;28;19920;-80
2022/05/19 10:36:11;;;;;;;;;;;28.70;52.10;;;;;;5059050;28;20012;-79
2022/05/19 10:38:42;;;;;;;;;;;29.00;53.20;;;;;;5066599;28;19904;-80
2022/05/19 10:41:22;;;;;;;;;;;29.00;53.40;;;;;;5075482;28;19917;-80
2022/05/19 10:44:00;;;;;;;;;;;28.40;52.40;;;;;;5066783;28;19905;-80
2022/05/19 10:46:28;;;;;;;;;;;29.70;55.40;;;;;;5066138;28;20385;-81
2022/05/19 10:48:53;;;;;;;;;;;29.70;51.90;;;;;;5055967;28;19920;-81
2022/05/19 10:51:37;;;;;;;;;;;28.70;51.00;;;;;;5060968;28;19909;-82
2022/05/19 10:54:13;;;;;;;;;;;28.90;53.50;;;;;;5062771;28;19908;-80
2022/05/19 10:56:39;;;;;;;;;;;30.00;52.90;;;;;;5064200;28;19909;-81
2022/05/19 10:59:23;;;;;;;;;;;30.00;55.90;;;;;;5069643;28;19893;-82
2022/05/19 11:02:21;;;;;;;;;;;30.30;52.00;;;;;;5062643;28;19924;-81
2022/05/19 11:04:47;;;;;;;;;;;30.30;52.60;;;;;;5060885;28;20395;-80
2022/05/19 11:07:31;;;;;;;;;;;30.40;50.90;;;;;;5065474;28;19916;-79
2022/05/19 11:10:15;;;;;;;;;;;29.50;51.10;;;;;;5063400;28;19928;-80
2022/05/19 11:12:47;;;;;;;;;;;30.50;50.30;;;;;;5062234;28;19912;-81
2022/05/19 11:15:12;;;;;;;;;;;30.50;50.10;;;;;;5062985;28;19920;-80
2022/05/19 11:17:48;;;;;;;;;;;29.20;49.30;;;;;;5062788;28;19909;-79
2022/05/19 11:20:16;;;;;;;;;;;30.30;50.30;;;;;;5063375;28;19908;-81
2022/05/19 11:22:42;;;;;;;;;;;30.40;50.10;;;;;;5067517;28;19920;-81
2022/05/19 11:28:10;;;;;;;;;;;30.80;54.20;;;;;;5064962;28;19935;-80
2022/05/19 11:30:45;;;;;;;;;;;30.70;54.20;;;;;;5062315;28;19920;-80
2022/05/19 11:33:13;;;;;;;;;;;30.10;51.10;;;;;;5062292;28;19916;-81
2022/05/19 11:35:41;;;;;;;;;;;29.50;50.70;;;;;;5060887;28;19962;-81
2022/05/19 11:38:24;;;;;;;;;;;30.80;52.80;;;;;;5060111;28;19908;-81
2022/05/19 11:40:56;;;;;;;;;;;31.40;53.30;;;;;;5060564;28;19909;-81
2022/05/19 11:43:41;;;;;;;;;;;29.70;51.30;;;;;;5061198;28;19904;-79
2022/05/19 11:46:22;;;;;;;;;;;33.30;54.60;;;;;;5059539;28;19916;-81
2022/05/19 11:57:33;;;;;;;;;;;30.50;51.90;;;;;;5060176;28;19919;-81
2022/05/19 12:00:00;;;;;;;;;;;30.00;52.70;;;;;;5058706;28;20288;-80
2022/05/19 12:02:33;;;;;;;;;;;31.00;53.90;;;;;;5060431;28;20545;-80
2022/05/19 12:05:06;;;;;;;;;;;30.00;53.00;;;;;;5059554;28;19912;-80
2022/05/19 12:07:40;;;;;;;;;;;31.30;50.90;;;;;;5060255;28;19908;-80
2022/05/19 12:10:06;;;;;;;;;;;31.30;50.90;;;;;;5069974;28;20462;-80
2022/05/19 12:12:34;;;;;;;;;;;30.60;51.00;;;;;;5069331;28;20360;-80
2022/05/19 12:15:04;;;;;;;;;;;31.30;50.20;;;;;;5068299;28;20423;-80
2022/05/19 12:17:32;;;;;;;;;;;30.90;49.90;;;;;;5061911;28;19912;-80
2022/05/19 12:20:02;;;;;;;;;;;30.60;49.00;;;;;;5059588;28;20008;-81
2022/05/19 12:22:35;;;;;;;;;;;31.30;50.10;;;;;;5064783;28;20410;-81
2022/05/19 12:25:01;;;;;;;;;;;30.50;49.60;;;;;;5058735;28;19984;-81
2022/05/19 12:27:31;;;;;;;;;;;30.80;51.20;;;;;;5067008;28;19914;-82
2022/05/19 12:33:14;;;;;;;;;;;31.00;49.60;;;;;;5064952;28;19974;-81
2022/05/19 12:35:40;;;;;;;;;;;31.00;50.50;;;;;;5062117;28;19919;-79
2022/05/19 12:38:26;;;;;;;;;;;30.70;50.50;;;;;;5069449;28;20396;-78
2022/05/19 12:40:56;;;;;;;;;;;31.30;52.60;;;;;;5067272;28;19912;-80
2022/05/19 12:43:21;;;;;;;;;;;31.40;53.90;;;;;;5058116;28;19909;-80
2022/05/19 12:45:48;;;;;;;;;;;30.40;51.00;;;;;;5067885;28;19927;-80
2022/05/19 12:48:14;;;;;;;;;;;30.30;51.90;;;;;;5063642;28;19905;-79
2022/05/19 12:50:42;;;;;;;;;;;31.40;52.70;;;;;;5070264;28;20241;-80
2022/05/19 12:53:13;;;;;;;;;;;30.70;52.20;;;;;;5067412;28;19923;-80
2022/05/19 12:55:39;;;;;;;;;;;30.40;53.20;;;;;;5072948;28;19931;-81
2022/05/19 12:58:23;;;;;;;;;;;30.90;51.70;;;;;;5068462;28;20353;-80
2022/05/19 13:00:48;;;;;;;;;;;29.90;52.90;;;;;;5066490;28;20367;-80
2022/05/19 13:03:15;;;;;;;;;;;30.90;52.50;;;;;;5064326;28;19916;-80
2022/05/19 13:05:53;;;;;;;;;;;30.80;54.10;;;;;;5064099;28;19995;-80
2022/05/19 13:08:30;;;;;;;;;;;30.70;54.30;;;;;;5068543;28;19909;-81
2022/05/19 13:10:56;;;;;;;;;;;29.80;53.30;;;;;;5072287;28;20384;-80
2022/05/19 13:13:37;;;;;;;;;;;31.00;52.70;;;;;;5069622;28;19924;-82
2022/05/19 13:16:11;;;;;;;;;;;29.80;54.00;;;;;;5065369;28;19931;-81
2022/05/19 13:18:39;;;;;;;;;;;29.80;51.50;;;;;;5066929;28;19909;-81
2022/05/19 13:21:06;;;;;;;;;;;30.30;53.90;;;;;;5069843;28;19916;-82
2022/05/19 13:23:32;;;;;;;;;;;30.70;54.10;;;;;;5069636;28;19916;-81
2022/05/19 13:26:04;;;;;;;;;;;29.90;53.50;;;;;;5068116;28;19908;-80
2022/05/19 13:31:21;;;;;;;;;;;30.30;52.80;;;;;;5069415;28;19923;-80
2022/05/19 13:33:48;;;;;;;;;;;30.60;53.40;;;;;;5065157;28;19940;-80
2022/05/19 13:36:14;;;;;;;;;;;30.60;54.60;;;;;;5072239;28;19968;-79
2022/05/19 13:38:39;;;;;;;;;;;31.00;54.20;;;;;;5076527;28;19927;-80
2022/05/19 13:41:08;;;;;;;;;;;31.00;54.00;;;;;;5075175;28;19934;-80
2022/05/19 13:43:40;;;;;;;;;;;31.10;54.50;;;;;;5068272;28;19938;-80
2022/05/19 13:46:12;;;;;;;;;;;30.40;56.30;;;;;;5071772;28;19912;-79
2022/05/19 13:48:58;;;;;;;;;;;31.20;52.40;;;;;;5074039;28;19909;-80
2022/05/19 13:51:23;;;;;;;;;;;31.00;52.40;;;;;;5067958;28;19923;-81
2022/05/19 13:53:52;;;;;;;;;;;31.00;50.80;;;;;;5071064;28;19971;-81
2022/05/19 13:56:21;;;;;;;;;;;29.90;49.80;;;;;;5063605;28;19939;-82
2022/05/19 13:58:48;;;;;;;;;;;31.10;53.90;;;;;;5069564;28;19904;-80
2022/05/19 14:01:21;;;;;;;;;;;30.10;52.30;;;;;;5065712;28;19948;-81
2022/05/19 14:03:46;;;;;;;;;;;30.30;52.20;;;;;;5067893;28;19954;-81
2022/05/19 14:06:12;;;;;;;;;;;31.00;52.70;;;;;;5066085;28;19905;-80
2022/05/19 14:08:38;;;;;;;;;;;30.60;49.90;;;;;;5062997;28;20300;-81
2022/05/19 14:11:03;;;;;;;;;;;30.10;50.50;;;;;;5055183;28;19924;-81
2022/05/19 14:13:32;;;;;;;;;;;30.00;50.50;;;;;;5066640;28;19904;-81
2022/05/19 14:16:01;;;;;;;;;;;30.20;50.90;;;;;;5062151;28;19948;-80
2022/05/19 14:18:30;;;;;;;;;;;30.00;50.70;;;;;;5063482;28;19912;-81
2022/05/19 14:21:24;;;;;;;;;;;31.10;51.30;;;;;;5056644;28;19909;-81
2022/05/19 14:24:06;;;;;;;;;;;30.00;50.70;;;;;;5042271;28;19917;-82
2022/05/19 14:26:43;;;;;;;;;;;29.80;50.10;;;;;;5053119;28;19912;-80
2022/05/19 14:29:31;;;;;;;;;;;30.80;53.50;;;;;;5056822;28;19924;-82
2022/05/19 14:31:58;;;;;;;;;;;;;;;;;;5062387;28;19972;-81
2022/05/19 14:34:29;;;;;;;;;;;29.90;52.10;;;;;;5055610;28;19916;-80
2022/05/19 14:36:57;;;;;;;;;;;30.80;52.80;;;;;;5050547;28;19909;-82
2022/05/19 14:39:26;;;;;;;;;;;30.60;52.60;;;;;;5058520;28;19930;-82
2022/05/19 14:44:36;;;;;;;;;;;;;;;;;;5042743;28;19927;-79
2022/05/19 14:47:04;;;;;;;;;;;30.10;53.20;;;;;;5051449;28;20693;-81
2022/05/19 14:49:34;;;;;;;;;;;30.90;52.60;;;;;;5058823;28;20001;-80
2022/05/19 14:52:01;;;;;;;;;;;31.00;52.50;;;;;;5051149;28;19954;-79
2022/05/19 14:54:29;;;;;;;;;;;29.70;51.40;;;;;;5052184;28;19916;-80
2022/05/19 14:56:57;;;;;;;;;;;30.40;52.60;;;;;;5046972;28;19992;-80
2022/05/19 14:59:25;;;;;;;;;;;30.90;55.10;;;;;;5044572;28;19923;-81
2022/05/19 15:01:54;;;;;;;;;;;30.90;55.00;;;;;;5038576;28;19943;-79
2022/05/19 15:04:19;;;;;;;;;;;30.90;52.50;;;;;;5054244;28;20004;-81
2022/05/19 15:06:45;;;;;;;;;;;;;;;;;;5049455;28;19912;-80
2022/05/19 15:09:11;;;;;;;;;;;29.90;53.90;;;;;;5048415;28;19959;-80
2022/05/19 15:11:36;;;;;;;;;;;30.60;52.70;;;;;;5056728;28;19952;-80
2022/05/19 15:14:02;;;;;;;;;;;30.80;53.90;;;;;;5047939;28;19917;-80
2022/05/19 15:16:28;;;;;;;;;;;30.60;54.90;;;;;;5051083;28;19909;-80
2022/05/19 15:18:54;;;;;;;;;;;29.70;54.70;;;;;;5053620;28;19909;-81
2022/05/19 15:21:20;;;;;;;;;;;30.60;53.90;;;;;;5048144;28;19966;-81
2022/05/19 15:23:45;;;;;;;;;;;29.50;55.30;;;;;;5052003;28;19904;-79
2022/05/19 15:26:12;;;;;;;;;;;30.50;55.30;;;;;;5047283;28;19940;-81
2022/05/19 15:28:42;;;;;;;;;;;29.40;56.30;;;;;;5051729;28;20060;-80
2022/05/19 15:31:08;;;;;;;;;;;30.50;55.10;;;;;;5049870;28;19927;-79
2022/05/19 15:33:34;;;;;;;;;;;30.60;55.20;;;;;;5050623;28;20383;-80
2022/05/19 15:35:59;;;;;;;;;;;30.40;55.20;;;;;;5046047;28;19917;-81
2022/05/19 15:38:25;;;;;;;;;;;30.70;55.50;;;;;;5054651;28;21430;-81